Time;durP1;ratioP1;P1;durP2;ratioP2;P2;SDS_P1;SDS_P2;PMS_P1;PMS_P2;Temp;Humidity;BMP_temperature;BMP_pressure;BME280_temperature;BME280_humidity;BME280_pressure;Samples;Min_cycle;Max_cycle;Signal;HPM_P1;HPM_P2
2022/09/03 00:01:38;;;;;;;0.80;0.63;;;;;;;21.84;100.00;99092.91;7390226;19;20023;-79
2022/09/03 00:04:13;;;;;;;0.35;0.28;;;;;;;21.95;100.00;99086.81;7388370;19;20014;-79
2022/09/03 00:06:47;;;;;;;1.52;0.70;;;;;;;21.93;100.00;99091.56;7389457;19;20025;-79
2022/09/03 00:09:30;;;;;;;1.15;0.52;;;;;;;21.86;100.00;99081.75;7387792;19;20014;-79
2022/09/03 00:12:14;;;;;;;2.05;0.95;;;;;;;21.85;100.00;99083.09;7388570;19;20039;-79
2022/09/03 00:14:46;;;;;;;5.20;1.00;;;;;;;21.62;100.00;99080.28;7387540;19;20206;-78
2022/09/03 00:17:17;;;;;;;2.13;1.02;;;;;;;21.50;100.00;99081.25;7390248;19;20078;-79
2022/09/03 00:19:53;;;;;;;1.20;0.28;;;;;;;21.64;100.00;99074.78;7387462;19;20368;-79
2022/09/03 00:22:28;;;;;;;1.25;0.52;;;;;;;21.66;100.00;99072.13;7386968;19;20593;-79
2022/09/03 00:24:59;;;;;;;1.08;0.75;;;;;;;21.50;100.00;99065.03;7387689;19;20014;-84
2022/09/03 00:27:27;;;;;;;1.38;0.50;;;;;;;21.69;100.00;99067.41;7390357;19;20018;-80
2022/09/03 00:30:00;;;;;;;0.82;0.50;;;;;;;21.69;100.00;99068.19;7386763;19;20126;-80
2022/09/03 00:32:49;;;;;;;1.80;0.73;;;;;;;21.82;100.00;99064.34;7387664;19;20479;-79
2022/09/03 00:35:52;;;;;;;3.20;0.93;;;;;;;21.80;100.00;99067.00;7386103;19;20014;-79
2022/09/03 00:38:21;;;;;;;2.72;0.90;;;;;;;21.73;100.00;99068.53;7385794;19;20018;-79
2022/09/03 00:40:58;;;;;;;8.18;0.70;;;;;;;21.67;100.00;99058.72;7391604;19;20031;-79
2022/09/03 00:43:45;;;;;;;0.85;0.47;;;;;;;21.49;100.00;99057.84;7387145;19;20014;-79
2022/09/03 00:46:21;;;;;;;2.25;0.82;;;;;;;21.57;100.00;99052.16;7389048;19;20022;-79
2022/09/03 00:49:24;;;;;;;6.18;1.27;;;;;;;21.75;100.00;99057.38;7388601;19;20026;-79
2022/09/03 00:51:58;;;;;;;1.63;0.32;;;;;;;21.79;100.00;99059.81;7389156;19;20027;-80
2022/09/03 00:55:01;;;;;;;1.10;0.77;;;;;;;21.79;100.00;99062.66;7386993;19;20026;-78
2022/09/03 00:58:08;;;;;;;1.30;0.75;;;;;;;21.81;100.00;99060.75;7390289;19;20018;-79
2022/09/03 01:00:35;;;;;;;2.95;0.88;;;;;;;21.82;100.00;99055.84;7386364;19;20081;-79
2022/09/03 01:03:18;;;;;;;1.25;0.50;;;;;;;21.59;100.00;99049.50;7387821;19;20018;-79
2022/09/03 01:06:03;;;;;;;7.55;0.47;;;;;;;21.69;100.00;99048.34;7389184;19;20026;-79
2022/09/03 01:08:31;;;;;;;2.05;0.50;;;;;;;21.40;100.00;99054.81;7387568;19;20022;-79
2022/09/03 01:11:29;;;;;;;3.55;1.05;;;;;;;21.65;100.00;99052.88;7390297;19;20015;-79
2022/09/03 01:14:09;;;;;;;1.55;0.60;;;;;;;21.73;100.00;99047.94;7384322;19;20453;-79
2022/09/03 01:16:55;;;;;;;2.55;1.10;;;;;;;21.57;100.00;99040.81;7386886;19;20039;-79
2022/09/03 01:19:43;;;;;;;0.77;0.57;;;;;;;21.57;100.00;99040.81;7386510;19;20029;-79
2022/09/03 01:22:34;;;;;;;3.45;0.80;;;;;;;21.88;100.00;99025.22;7387120;19;20018;-79
2022/09/03 01:25:30;;;;;;;2.17;0.75;;;;;;;21.81;100.00;99028.81;7386760;19;20022;-79
2022/09/03 01:28:21;;;;;;;3.00;0.95;;;;;;;21.64;100.00;99029.44;7385464;19;20070;-79
2022/09/03 01:30:56;;;;;;;2.20;1.00;;;;;;;21.60;100.00;99025.50;7385570;19;20041;-79
2022/09/03 01:33:37;;;;;;;0.70;0.50;;;;;;;21.79;100.00;99017.28;7386988;19;20014;-79
2022/09/03 01:36:21;;;;;;;3.70;1.40;;;;;;;21.61;100.00;99021.34;7388431;19;20258;-79
2022/09/03 01:39:23;;;;;;;1.98;0.68;;;;;;;21.59;100.00;99021.16;7393081;19;20026;-79
2022/09/03 01:42:17;;;;;;;1.52;0.85;;;;;;;21.66;100.00;99014.69;7390786;19;20090;-79
2022/09/03 01:45:07;;;;;;;4.25;0.90;;;;;;;21.68;100.00;99014.88;7392369;19;20033;-79
2022/09/03 01:47:52;;;;;;;4.55;1.80;;;;;;;22.06;100.00;99007.00;7391200;19;20039;-79
2022/09/03 01:51:01;;;;;;;8.93;1.75;;;;;;;22.16;100.00;98993.69;7394536;19;20018;-78
2022/09/03 01:53:37;;;;;;;2.20;1.20;;;;;;;22.20;100.00;98999.72;7391836;19;20017;-79
2022/09/03 01:56:41;;;;;;;10.98;1.50;;;;;;;21.92;100.00;98985.88;7392614;19;20015;-79
2022/09/03 01:59:26;;;;;;;2.28;1.35;;;;;;;21.77;100.00;98989.53;7392558;19;20481;-79
2022/09/03 02:02:18;;;;;;;2.20;0.80;;;;;;;21.91;100.00;98981.56;7393555;19;20018;-79
2022/09/03 02:05:11;;;;;;;3.75;0.95;;;;;;;22.16;100.00;98982.34;7393754;19;20039;-80
2022/09/03 02:07:42;;;;;;;6.97;1.55;;;;;;;22.01;100.00;98976.00;7390051;19;20026;-80
2022/09/03 02:10:17;;;;;;;3.97;1.42;;;;;;;22.02;100.00;98972.63;7394247;19;20052;-81
2022/09/03 02:12:53;;;;;;;7.10;1.77;;;;;;;21.98;100.00;98966.59;7393631;19;20022;-80
2022/09/03 02:15:21;;;;;;;4.80;1.95;;;;;;;20.72;100.00;98976.38;7392944;19;20021;-79
2022/09/03 02:17:51;;;;;;;2.05;0.85;;;;;;;20.43;100.00;98975.06;7389587;19;20369;-80
2022/09/03 02:20:20;;;;;;;5.80;1.13;;;;;;;20.28;100.00;98977.88;7390219;19;20030;-81
2022/09/03 02:22:48;;;;;;;3.45;1.08;;;;;;;20.15;100.00;98984.44;7391550;19;20045;-80
2022/09/03 02:25:16;;;;;;;3.45;1.23;;;;;;;21.31;100.00;98978.97;7392955;19;20467;-79
2022/09/03 02:27:43;;;;;;;2.70;1.30;;;;;;;21.46;100.00;98976.06;7390886;19;20015;-80
2022/09/03 02:30:10;;;;;;;33.08;1.92;;;;;;;21.36;100.00;98977.97;7392794;19;20022;-80
2022/09/03 02:32:36;;;;;;;4.30;1.30;;;;;;;21.37;100.00;98988.00;7392005;19;20018;-80
2022/09/03 02:35:03;;;;;;;5.80;2.42;;;;;;;21.40;100.00;98986.84;7392030;19;20018;-79
2022/09/03 02:37:29;;;;;;;4.43;1.70;;;;;;;21.26;100.00;98991.22;7389424;19;20022;-80
2022/09/03 02:39:56;;;;;;;0.85;0.57;;;;;;;21.18;100.00;98987.66;7391799;19;20468;-79
2022/09/03 02:42:22;;;;;;;4.70;1.33;;;;;;;21.14;100.00;98988.81;7392268;19;20484;-79
2022/09/03 02:44:56;;;;;;;2.58;1.45;;;;;;;21.19;100.00;98983.50;7392605;19;20089;-79
2022/09/03 02:47:27;;;;;;;4.32;1.70;;;;;;;21.21;100.00;98986.50;7395293;19;20025;-79
2022/09/03 02:49:54;;;;;;;8.40;2.50;;;;;;;21.11;100.00;98981.44;7391740;19;20022;-80
2022/09/03 02:52:20;;;;;;;5.40;2.22;;;;;;;21.11;100.00;98992.03;7393431;19;20048;-79
2022/09/03 02:54:46;;;;;;;4.90;2.10;;;;;;;21.23;100.00;98983.88;7389780;19;20479;-79
2022/09/03 02:57:14;;;;;;;3.47;1.52;;;;;;;21.12;100.00;98990.69;7393430;19;20025;-79
2022/09/03 02:59:43;;;;;;;13.00;3.40;;;;;;;20.72;100.00;98987.72;7389662;19;20490;-79
2022/09/03 03:02:11;;;;;;;3.15;2.10;;;;;;;21.02;100.00;98993.34;7391648;19;20643;-79
2022/09/03 03:04:37;;;;;;;5.80;1.77;;;;;;;20.97;100.00;98980.13;7391300;19;20047;-79
2022/09/03 03:07:04;;;;;;;7.53;2.03;;;;;;;20.89;100.00;98985.06;7394303;19;20058;-79
2022/09/03 03:09:30;;;;;;;5.05;1.48;;;;;;;20.63;100.00;98979.78;7392032;19;20025;-79
2022/09/03 03:11:56;;;;;;;3.85;1.55;;;;;;;20.56;100.00;98986.19;7388799;19;20483;-79
2022/09/03 03:14:23;;;;;;;3.60;1.70;;;;;;;20.55;100.00;98983.94;7392000;19;20539;-79
2022/09/03 03:16:50;;;;;;;3.08;1.15;;;;;;;20.47;100.00;98981.09;7393293;19;20019;-79
2022/09/03 03:19:16;;;;;;;6.30;2.42;;;;;;;20.42;100.00;98982.03;7390492;19;20022;-79
2022/09/03 03:21:43;;;;;;;3.80;0.80;;;;;;;20.38;100.00;98981.66;7391126;19;20007;-79
2022/09/03 03:24:09;;;;;;;4.28;1.63;;;;;;;20.33;100.00;98985.44;7388049;19;20794;-79
2022/09/03 03:26:36;;;;;;;11.85;2.83;;;;;;;20.25;100.00;98990.31;7391013;19;20022;-79
2022/09/03 03:29:05;;;;;;;9.48;1.92;;;;;;;20.25;100.00;98984.66;7389333;19;20018;-79
2022/09/03 03:31:32;;;;;;;3.75;1.48;;;;;;;20.24;100.00;98983.91;7388931;19;20045;-79
2022/09/03 03:34:02;;;;;;;5.82;2.35;;;;;;;20.01;100.00;98985.88;7390404;19;20649;-79
2022/09/03 03:36:31;;;;;;;3.38;1.55;;;;;;;20.03;100.00;98983.25;7392606;19;20641;-78
2022/09/03 03:38:58;;;;;;;5.63;1.77;;;;;;;19.95;100.00;98985.31;7390217;19;20029;-79
2022/09/03 03:41:35;;;;;;;3.67;1.75;;;;;;;20.01;100.00;98982.34;7394532;19;20372;-79
2022/09/03 03:44:04;;;;;;;3.65;1.13;;;;;;;20.03;100.00;98985.34;7390628;19;20015;-79
2022/09/03 03:46:32;;;;;;;6.85;2.67;;;;;;;19.97;100.00;98987.56;7391588;19;20018;-78
2022/09/03 03:48:59;;;;;;;8.05;1.80;;;;;;;19.89;100.00;98973.44;7388374;19;20022;-79
2022/09/03 03:51:25;;;;;;;7.25;2.03;;;;;;;19.93;100.00;98975.88;7390215;19;20431;-79
2022/09/03 03:53:56;;;;;;;4.85;1.70;;;;;;;19.86;100.00;98971.72;7390530;19;20015;-79
2022/09/03 03:56:24;;;;;;;2.25;1.48;;;;;;;19.81;100.00;98972.66;7389332;19;20019;-79
2022/09/03 03:58:52;;;;;;;7.18;2.13;;;;;;;19.81;100.00;98969.09;7388702;19;20115;-79
2022/09/03 04:01:20;;;;;;;5.82;2.40;;;;;;;19.78;100.00;98970.94;7389270;19;20038;-79
2022/09/03 04:03:47;;;;;;;7.30;2.72;;;;;;;19.87;100.00;98969.66;7389592;19;20158;-79
2022/09/03 04:06:16;;;;;;;5.30;2.17;;;;;;;19.90;100.00;98977.03;7389115;19;20018;-79
2022/09/03 04:08:44;;;;;;;6.10;2.45;;;;;;;19.89;100.00;98970.59;7390078;19;20022;-79
2022/09/03 04:11:12;;;;;;;4.55;2.08;;;;;;;19.89;100.00;98969.84;7391499;19;20078;-78
2022/09/03 04:13:40;;;;;;;5.43;2.67;;;;;;;19.75;100.00;98971.34;7388436;19;20459;-79
2022/09/03 04:16:09;;;;;;;5.80;2.83;;;;;;;19.71;100.00;98959.66;7389372;19;20017;-79
2022/09/03 04:18:37;;;;;;;10.60;2.80;;;;;;;19.57;100.00;98962.59;7389746;19;20019;-79
2022/09/03 04:21:06;;;;;;;9.30;1.83;;;;;;;19.78;100.00;98967.38;7388378;19;20614;-79
2022/09/03 04:23:41;;;;;;;7.65;3.20;;;;;;;19.87;100.00;98958.34;7389119;19;20030;-79
2022/09/03 04:26:09;;;;;;;3.90;1.98;;;;;;;19.92;100.00;98963.09;7390353;19;20022;-79
2022/09/03 04:28:36;;;;;;;9.13;2.53;;;;;;;19.80;100.00;98968.31;7387357;19;20032;-79
2022/09/03 04:31:05;;;;;;;4.88;2.55;;;;;;;19.70;100.00;98970.19;7389373;19;20014;-79
2022/09/03 04:33:32;;;;;;;4.88;2.08;;;;;;;19.44;100.00;98976.09;7389588;19;20023;-79
2022/09/03 04:36:09;;;;;;;2.80;1.70;;;;;;;19.41;100.00;98968.72;7390122;19;20082;-78
2022/09/03 04:38:38;;;;;;;9.10;3.35;;;;;;;19.61;100.00;98974.28;7386784;19;20021;-79
2022/09/03 04:41:06;;;;;;;4.50;2.08;;;;;;;19.36;100.00;98970.41;7391792;19;20014;-79
2022/09/03 04:43:33;;;;;;;7.68;2.65;;;;;;;19.48;100.00;98965.19;7389301;19;20026;-79
2022/09/03 04:46:01;;;;;;;16.48;4.35;;;;;;;19.54;100.00;98971.44;7389107;19;20065;-79
2022/09/03 04:48:28;;;;;;;14.63;3.67;;;;;;;19.70;100.00;98969.41;7385679;19;20415;-79
2022/09/03 04:51:12;;;;;;;7.15;2.65;;;;;;;19.82;100.00;98970.56;7388953;19;20017;-78
2022/09/03 04:53:41;;;;;;;8.55;3.20;;;;;;;19.99;100.00;98965.19;7386484;19;20029;-78
2022/09/03 04:56:18;;;;;;;14.35;3.88;;;;;;;20.07;100.00;98963.88;7387241;19;20082;-79
2022/09/03 04:58:46;;;;;;;8.35;2.83;;;;;;;20.10;100.00;98967.63;7384597;19;20018;-79
2022/09/03 05:01:17;;;;;;;10.40;3.95;;;;;;;20.20;100.00;98968.59;7387687;19;20487;-78
2022/09/03 05:03:44;;;;;;;4.50;2.38;;;;;;;19.16;100.00;98962.75;7387243;19;20018;-78
2022/09/03 05:06:10;;;;;;;7.15;2.28;;;;;;;19.42;100.00;98968.19;7388362;19;20086;-79
2022/09/03 05:08:37;;;;;;;3.70;2.35;;;;;;;20.07;100.00;98957.47;7387378;19;20368;-79
2022/09/03 05:11:05;;;;;;;11.70;3.15;;;;;;;20.21;100.00;98962.41;7389062;19;20042;-79
2022/09/03 05:13:33;;;;;;;10.13;4.55;;;;;;;20.38;100.00;98954.13;7383745;19;20019;-79
2022/09/03 05:16:00;;;;;;;6.63;2.58;;;;;;;20.44;100.00;98962.44;7386226;19;20027;-80
2022/09/03 05:18:28;;;;;;;8.57;3.17;;;;;;;20.30;100.00;98961.09;7387340;19;20010;-78
2022/09/03 05:21:06;;;;;;;13.52;3.08;;;;;;;20.33;100.00;98965.63;7386151;19;20078;-78
2022/09/03 05:23:38;;;;;;;8.30;2.70;;;;;;;20.37;100.00;98971.66;7387233;19;20367;-78
2022/09/03 05:26:08;;;;;;;11.18;3.35;;;;;;;20.38;100.00;98964.69;7386219;19;20018;-77
2022/09/03 05:28:35;;;;;;;6.38;3.05;;;;;;;20.35;100.00;98963.00;7386382;19;20011;-78
2022/09/03 05:31:06;;;;;;;12.90;4.22;;;;;;;20.45;100.00;98957.50;7385009;19;20417;-78
2022/09/03 05:33:34;;;;;;;6.63;3.05;;;;;;;20.56;100.00;98952.25;7386346;19;20018;-79
2022/09/03 05:36:06;;;;;;;5.15;3.22;;;;;;;20.61;100.00;98956.19;7386585;19;20041;-78
2022/09/03 05:38:33;;;;;;;8.32;3.33;;;;;;;20.76;100.00;98959.78;7386556;19;20019;-79
2022/09/03 05:41:00;;;;;;;11.15;4.28;;;;;;;20.77;100.00;98957.72;7390330;19;20585;-79
2022/09/03 05:43:28;;;;;;;10.40;3.10;;;;;;;20.84;100.00;98954.84;7386094;19;20042;-78
2022/09/03 05:46:02;;;;;;;10.23;3.42;;;;;;;20.84;100.00;98956.94;7388049;19;20019;-78
2022/09/03 05:48:29;;;;;;;8.30;3.45;;;;;;;21.09;100.00;98958.59;7386741;19;20030;-78
2022/09/03 05:51:04;;;;;;;12.48;4.82;;;;;;;19.87;100.00;98972.47;7386204;19;20018;-78
2022/09/03 05:53:33;;;;;;;14.57;3.97;;;;;;;19.70;100.00;98964.53;7383481;19;20082;-78
2022/09/03 05:56:09;;;;;;;9.02;4.05;;;;;;;19.65;100.00;98962.63;7385454;19;20033;-78
2022/09/03 05:58:38;;;;;;;9.27;3.58;;;;;;;19.64;100.00;98973.16;7384152;19;20031;-78
2022/09/03 06:01:22;;;;;;;9.98;4.00;;;;;;;19.64;100.00;98964.69;7384167;19;20078;-77
2022/09/03 06:04:03;;;;;;;8.68;2.70;;;;;;;19.55;100.00;98964.47;7385138;19;20045;-78
2022/09/03 06:06:32;;;;;;;13.93;3.10;;;;;;;19.55;100.00;98968.06;7388049;19;20477;-78
2022/09/03 06:09:02;;;;;;;21.35;4.28;;;;;;;19.44;100.00;98959.91;7383628;19;20499;-78
2022/09/03 06:11:29;;;;;;;8.88;4.00;;;;;;;19.47;100.00;98963.66;7383513;19;20026;-78
2022/09/03 06:13:57;;;;;;;11.77;3.55;;;;;;;19.27;100.00;98968.09;7385128;19;20515;-77
2022/09/03 06:16:24;;;;;;;11.20;4.72;;;;;;;19.58;100.00;98969.00;7387801;19;20035;-78
2022/09/03 06:18:50;;;;;;;16.17;3.67;;;;;;;19.63;100.00;98971.66;7386258;19;20022;-78
2022/09/03 06:21:16;;;;;;;12.85;3.45;;;;;;;19.72;100.00;98967.56;7383961;19;20030;-78
2022/09/03 06:23:42;;;;;;;11.32;3.25;;;;;;;19.75;100.00;98965.69;7387780;19;20014;-78
2022/09/03 06:26:11;;;;;;;10.50;3.40;;;;;;;19.66;100.00;98964.88;7393940;19;20022;-78
2022/09/03 06:28:43;;;;;;;11.85;3.78;;;;;;;19.67;100.00;98966.41;7391391;19;20519;-77
2022/09/03 06:31:14;;;;;;;13.32;4.30;;;;;;;19.81;100.00;98957.78;7390328;19;20011;-78
2022/09/03 06:33:41;;;;;;;11.07;4.72;;;;;;;19.83;100.00;98955.16;7392949;19;20026;-78
2022/09/03 06:36:10;;;;;;;10.18;4.65;;;;;;;19.94;100.00;98960.44;7391699;19;20035;-78
2022/09/03 06:38:37;;;;;;;7.28;3.67;;;;;;;19.95;100.00;98961.94;7391505;19;20018;-78
2022/09/03 06:41:09;;;;;;;6.07;2.88;;;;;;;20.07;100.00;98963.88;7394515;19;20018;-78
2022/09/03 06:43:38;;;;;;;10.02;4.18;;;;;;;20.15;100.00;98958.97;7391118;19;20045;-78
2022/09/03 06:46:15;;;;;;;9.10;4.40;;;;;;;20.25;100.00;98962.78;7392586;19;20041;-80
2022/09/03 06:48:41;;;;;;;12.15;4.80;;;;;;;20.35;100.00;98963.00;7390673;19;20033;-78
2022/09/03 06:51:14;;;;;;;11.35;4.40;;;;;;;20.36;100.00;98965.25;7391309;19;20010;-77
2022/09/03 06:53:42;;;;;;;17.80;4.72;;;;;;;20.45;100.00;98963.16;7391086;19;20026;-78
2022/09/03 06:56:11;;;;;;;14.15;4.95;;;;;;;20.53;100.00;98964.69;7393692;19;20041;-78
2022/09/03 06:58:42;;;;;;;8.90;3.30;;;;;;;20.58;100.00;98960.91;7390076;19;20026;-79
2022/09/03 07:01:13;;;;;;;9.75;3.65;;;;;;;20.81;100.00;98963.75;7391746;19;20499;-78
2022/09/03 07:03:40;;;;;;;11.23;5.63;;;;;;;21.75;100.00;98951.75;7389602;19;20463;-78
2022/09/03 07:06:18;;;;;;;9.18;3.63;;;;;;;22.02;100.00;98952.78;7390723;19;20713;-79
2022/09/03 07:08:45;;;;;;;12.57;5.18;;;;;;;22.00;100.00;98952.59;7388904;19;20018;-78
2022/09/03 07:11:14;;;;;;;12.18;4.55;;;;;;;22.12;100.00;98958.56;7393128;19;20014;-78
2022/09/03 07:13:43;;;;;;;16.02;4.65;;;;;;;22.10;100.00;98964.81;7389637;19;20025;-78
2022/09/03 07:16:13;;;;;;;9.68;4.25;;;;;;;22.27;100.00;98958.44;7391144;19;20131;-78
2022/09/03 07:18:39;;;;;;;9.02;4.28;;;;;;;22.31;100.00;98958.78;7389101;19;20479;-79
2022/09/03 07:21:08;;;;;;;17.92;6.50;;;;;;;22.29;100.00;98962.22;7390574;19;20046;-78
2022/09/03 07:23:35;;;;;;;12.77;4.35;;;;;;;22.31;100.00;98962.38;7390079;19;20026;-79
2022/09/03 07:26:05;;;;;;;18.48;4.63;;;;;;;22.58;100.00;98974.69;7390271;19;20023;-79
2022/09/03 07:28:33;;;;;;;22.98;5.57;;;;;;;22.75;100.00;98978.91;7390169;19;20019;-79
2022/09/03 07:31:08;;;;;;;10.50;3.90;;;;;;;22.80;100.00;98986.44;7389021;19;20022;-79
2022/09/03 07:33:35;;;;;;;14.75;5.18;;;;;;;22.90;100.00;98984.44;7390701;19;20047;-79
2022/09/03 07:36:05;;;;;;;13.00;4.57;;;;;;;22.91;100.00;98980.28;7389074;19;20026;-79
2022/09/03 07:38:35;;;;;;;13.27;5.93;;;;;;;23.14;100.00;98984.41;7388277;19;20022;-79
2022/09/03 07:41:05;;;;;;;10.73;4.63;;;;;;;23.26;100.00;98981.81;7392308;19;20017;-79
2022/09/03 07:43:38;;;;;;;15.18;5.53;;;;;;;23.29;100.00;98980.63;7388687;19;20018;-79
2022/09/03 07:46:11;;;;;;;11.82;5.43;;;;;;;23.36;100.00;98988.38;7391853;19;20360;-79
2022/09/03 07:48:42;;;;;;;13.90;4.28;;;;;;;23.44;100.00;98991.88;7388746;19;20014;-79
2022/09/03 07:51:08;;;;;;;16.50;4.97;;;;;;;23.46;100.00;98994.88;7388962;19;20010;-79
2022/09/03 07:53:35;;;;;;;20.52;6.60;;;;;;;23.47;100.00;98993.56;7389194;19;20029;-79
2022/09/03 07:56:07;;;;;;;21.33;7.07;;;;;;;23.46;100.00;99000.56;7388615;19;20039;-79
2022/09/03 07:58:35;;;;;;;18.60;6.78;;;;;;;23.53;100.00;98999.72;7387648;19;20018;-79
2022/09/03 08:01:21;;;;;;;16.02;5.53;;;;;;;23.59;100.00;98991.69;7390714;19;20389;-79
2022/09/03 08:03:51;;;;;;;15.27;4.40;;;;;;;23.57;100.00;99000.06;7389877;19;20011;-79
2022/09/03 08:06:20;;;;;;;10.73;4.15;;;;;;;23.67;100.00;99002.97;7388172;19;20035;-79
2022/09/03 08:08:47;;;;;;;8.60;4.38;;;;;;;23.67;100.00;98998.03;7389180;19;20112;-79
2022/09/03 08:11:18;;;;;;;11.77;4.68;;;;;;;23.68;100.00;98999.53;7390423;19;20018;-79
2022/09/03 08:13:47;;;;;;;9.32;3.92;;;;;;;23.79;100.00;98996.19;7388894;19;20041;-79
2022/09/03 08:16:19;;;;;;;14.65;4.93;;;;;;;23.92;100.00;98995.81;7388739;19;20536;-79
2022/09/03 08:18:46;;;;;;;8.25;4.03;;;;;;;23.98;100.00;98998.38;7391597;19;20018;-78
2022/09/03 08:21:15;;;;;;;13.57;4.75;;;;;;;24.07;100.00;98995.66;7386428;19;20660;-79
2022/09/03 08:23:43;;;;;;;11.10;4.45;;;;;;;24.12;100.00;98995.97;7388763;19;20130;-79
2022/09/03 08:26:11;;;;;;;11.85;4.70;;;;;;;24.14;100.00;99004.66;7387859;19;20038;-79
2022/09/03 08:28:37;;;;;;;6.93;4.05;;;;;;;24.23;100.00;99009.66;7388933;19;20018;-79
2022/09/03 08:31:11;;;;;;;10.73;5.93;;;;;;;24.30;100.00;99005.97;7388046;19;20023;-79
2022/09/03 08:33:41;;;;;;;13.48;4.32;;;;;;;24.45;100.00;99000.75;7388466;19;20033;-79
2022/09/03 08:36:21;;;;;;;11.07;5.20;;;;;;;24.51;100.00;99003.34;7389492;19;20022;-79
2022/09/03 08:38:49;;;;;;;9.05;4.28;;;;;;;24.53;100.00;99018.50;7387779;19;20037;-79
2022/09/03 08:41:18;;;;;;;15.50;5.32;;;;;;;24.52;100.00;99013.38;7391672;19;20425;-79
2022/09/03 08:44:20;;;;;;;12.27;3.97;;;;;;;24.56;100.00;99016.56;7386296;19;20090;-80
2022/09/03 08:47:09;;;;;;;4.15;2.40;;;;;;;24.59;100.00;99018.97;7386425;19;20050;-79
2022/09/03 08:49:54;;;;;;;10.68;4.93;;;;;;;24.57;100.00;99018.81;7387600;19;20018;-79
2022/09/03 08:52:31;;;;;;;8.52;3.83;;;;;;;24.52;100.00;99028.38;7387845;19;20487;-79
2022/09/03 08:55:12;;;;;;;10.07;3.75;;;;;;;24.60;100.00;99028.28;7386155;19;20014;-79
2022/09/03 08:57:44;;;;;;;9.43;3.17;;;;;;;24.69;100.00;99031.13;7385716;19;20126;-79
2022/09/03 09:00:11;;;;;;;12.27;4.85;;;;;;;24.77;100.00;99031.06;7385962;19;20473;-79
2022/09/03 09:02:48;;;;;;;7.15;3.65;;;;;;;24.77;100.00;99031.06;7387390;19;20083;-78
2022/09/03 09:05:20;;;;;;;11.70;4.03;;;;;;;24.79;100.00;99028.38;7387885;19;20036;-78
2022/09/03 09:07:52;;;;;;;9.65;4.30;;;;;;;24.89;100.00;99032.00;7385516;19;20014;-80
2022/09/03 09:10:53;;;;;;;10.48;3.80;;;;;;;25.02;100.00;99023.03;7387670;19;20031;-80
2022/09/03 09:13:54;;;;;;;9.45;3.45;;;;;;;25.14;100.00;99029.69;7385464;19;20047;-81
2022/09/03 09:16:34;;;;;;;14.38;4.55;;;;;;;25.18;100.00;99027.13;7386898;19;20078;-80
2022/09/03 09:19:03;;;;;;;10.05;4.03;;;;;;;25.25;100.00;99034.03;7386081;19;20015;-79
2022/09/03 09:21:38;;;;;;;8.25;4.40;;;;;;;25.46;100.00;99032.16;7386408;19;20025;-79
2022/09/03 09:24:12;;;;;;;6.65;3.38;;;;;;;25.58;100.00;99027.34;7384873;19;20022;-79
2022/09/03 09:26:40;;;;;;;7.25;3.63;;;;;;;25.69;100.00;99022.38;7385966;19;20494;-79
2022/09/03 09:29:09;;;;;;;9.65;2.90;;;;;;;25.78;100.00;99024.47;7384695;19;20017;-79
2022/09/03 09:31:38;;;;;;;12.80;4.03;;;;;;;25.93;100.00;99030.63;7385393;19;20113;-79
2022/09/03 09:34:06;;;;;;;6.93;3.08;;;;;;;25.99;100.00;99024.63;7384248;19;20018;-80
2022/09/03 09:36:41;;;;;;;9.25;3.40;;;;;;;26.22;100.00;99022.81;7388143;19;20018;-79
2022/09/03 09:39:09;;;;;;;18.08;4.55;;;;;;;26.31;100.00;99021.28;7385876;19;20567;-80
2022/09/03 09:41:35;;;;;;;9.50;3.95;;;;;;;26.28;100.00;99020.38;7390782;19;20029;-79
2022/09/03 09:44:06;;;;;;;6.75;3.08;;;;;;;26.16;100.00;99021.63;7385759;19;20029;-79
2022/09/03 09:46:37;;;;;;;;;;;;;;;26.35;100.00;99026.50;7388474;19;20043;-79
2022/09/03 09:49:21;;;;;;;7.10;2.17;;;;;;;26.24;100.00;99027.91;7383475;19;19922;-82
2022/09/03 09:51:47;;;;;;;9.52;2.70;;;;;;;26.20;100.00;99034.06;7385469;19;20037;-80
2022/09/03 09:54:18;;;;;;;14.32;3.65;;;;;;;26.18;100.00;99018.91;7383301;19;20090;-79
2022/09/03 09:56:57;;;;;;;9.02;2.67;;;;;;;26.33;100.00;99029.97;7385615;19;20023;-79
2022/09/03 09:59:23;;;;;;;4.45;1.55;;;;;;;26.46;100.00;99029.50;7385303;19;20011;-82
2022/09/03 10:01:49;;;;;;;8.93;3.05;;;;;;;26.68;100.00;99028.19;7393624;19;20694;-79
2022/09/03 10:04:26;;;;;;;11.48;3.40;;;;;;;26.95;100.00;99028.69;7393127;19;20025;-80
2022/09/03 10:07:04;;;;;;;5.32;1.88;;;;;;;27.38;100.00;99025.88;7392614;19;20018;-81
2022/09/03 10:09:32;;;;;;;7.38;2.50;;;;;;;27.36;100.00;99011.47;7394605;19;20043;-79
2022/09/03 10:12:04;;;;;;;9.00;2.15;;;;;;;27.36;100.00;99023.66;7393364;19;20030;-80
2022/09/03 10:14:40;;;;;;;5.57;3.15;;;;;;;27.25;100.00;99018.59;7391306;19;20018;-83
2022/09/03 10:17:20;;;;;;;5.22;2.05;;;;;;;27.34;100.00;99020.63;7391841;19;20019;-81
2022/09/03 10:22:46;;;;;;;8.20;2.22;;;;;;;27.65;100.00;99026.31;7390291;19;20033;-80
2022/09/03 10:25:15;;;;;;;3.03;1.63;;;;;;;27.74;100.00;99016.91;7390596;19;20520;-80
2022/09/03 10:27:43;;;;;;;7.55;2.42;;;;;;;27.73;100.00;99012.53;7390212;19;20018;-80
2022/09/03 10:30:12;;;;;;;2.58;0.88;;;;;;;27.67;100.00;99012.13;7391831;19;20019;-80
2022/09/03 10:32:58;;;;;;;29.65;2.85;;;;;;;27.50;100.00;99009.56;7392620;19;20090;-78
2022/09/03 10:35:45;;;;;;;3.03;1.02;;;;;;;27.67;100.00;99018.59;7391144;19;20014;-78
2022/09/03 10:38:14;;;;;;;4.90;1.70;;;;;;;27.90;100.00;99012.22;7388218;19;20014;-78
2022/09/03 10:40:47;;;;;;;4.40;1.58;;;;;;;27.91;100.00;99018.69;7390725;19;20051;-78
2022/09/03 10:43:35;;;;;;;13.65;2.50;;;;;;;27.97;100.00;99011.28;7391245;19;20030;-78
2022/09/03 10:46:10;;;;;;;1.58;0.68;;;;;;;27.85;100.00;99016.19;7392643;19;20071;-79
2022/09/03 10:48:51;;;;;;;3.22;1.30;;;;;;;27.90;100.00;99009.34;7391011;19;20018;-78
2022/09/03 10:51:54;;;;;;;3.30;0.95;;;;;;;28.17;100.00;99015.44;7390587;19;20019;-80
2022/09/03 10:54:31;;;;;;;1.27;0.93;;;;;;;28.25;100.00;99010.22;7389129;19;20014;-79
2022/09/03 10:57:03;;;;;;;4.28;1.13;;;;;;;28.41;100.00;99014.09;7391154;19;20021;-79
2022/09/03 11:00:13;;;;;;;5.50;0.98;;;;;;;28.27;100.00;99010.34;7388152;19;20373;-79
2022/09/03 11:02:42;;;;;;;;;;;;;;;28.35;100.00;99010.84;7390376;19;20404;-79
2022/09/03 11:05:22;;;;;;;2.85;1.10;;;;;;;28.13;100.00;99009.44;7389623;19;19922;-78
2022/09/03 11:07:55;;;;;;;1.25;0.70;;;;;;;28.07;100.00;99016.91;7385430;19;20022;-78
2022/09/03 11:10:29;;;;;;;4.70;1.58;;;;;;;28.13;100.00;99017.31;7388214;19;20085;-77
2022/09/03 11:13:12;;;;;;;2.65;0.77;;;;;;;28.05;100.00;99022.47;7390090;19;20413;-78
2022/09/03 11:15:50;;;;;;;2.17;0.70;;;;;;;27.88;100.00;99017.06;7389833;19;20010;-78
2022/09/03 11:18:38;;;;;;;1.58;0.98;;;;;;;27.86;100.00;99017.69;7389466;19;20057;-77
2022/09/03 11:21:09;;;;;;;2.67;0.77;;;;;;;27.86;100.00;99022.63;7386709;19;20018;-78
2022/09/03 11:23:44;;;;;;;1.58;0.82;;;;;;;27.91;100.00;99025.16;7388898;19;20671;-77
2022/09/03 11:26:15;;;;;;;0.47;0.30;;;;;;;27.96;100.00;99026.91;7392211;19;20026;-77
2022/09/03 11:28:50;;;;;;;;;;;;;;;28.03;100.00;99011.66;7388636;19;20014;-78
2022/09/03 11:31:40;;;;;;;3.50;0.40;;;;;;;28.22;100.00;99011.44;7389942;19;19914;-78
2022/09/03 11:34:15;;;;;;;2.63;0.75;;;;;;;28.56;100.00;99012.13;7389667;19;20045;-78
2022/09/03 11:36:41;;;;;;;2.28;0.20;;;;;;;28.60;100.00;99012.41;7389707;19;20367;-77
2022/09/03 11:39:19;;;;;;;1.25;0.40;;;;;;;28.63;99.59;99011.19;7385627;19;20018;-76
2022/09/03 11:42:05;;;;;;;1.70;0.47;;;;;;;27.41;100.00;99008.28;7388985;19;20033;-76
2022/09/03 11:44:43;;;;;;;5.97;1.13;;;;;;;26.94;100.00;99007.19;7388335;19;20046;-76
2022/09/03 11:47:15;;;;;;;0.73;0.10;;;;;;;26.89;100.00;98999.72;7392423;19;20019;-77
2022/09/03 11:49:50;;;;;;;1.85;0.20;;;;;;;26.72;100.00;99002.03;7389905;19;20018;-76
2022/09/03 11:52:30;;;;;;;0.70;0.28;;;;;;;26.64;100.00;99013.63;7393038;19;20021;-77
2022/09/03 11:54:56;;;;;;;0.30;0.08;;;;;;;26.47;100.00;99013.84;7388779;19;20376;-77
2022/09/03 11:57:27;;;;;;;1.30;0.40;;;;;;;26.46;100.00;99008.75;7391932;19;20018;-77